• Join FlightAware (Why Join?)
  • Login
  • US Flag 
09:38PM EDT


 

Airport Tracker/Info


-or-


 

Live Flight TrackerFlight Track Log ✈ KFS729 ✈ 20-May-2013 ✈ KLRD - KYIP

Flight Track Log - Related Links

Times and Time Zones

All times are in EDT time to prevent confusion due to time zone crossing. See the KFS729 flight status page for this flight to view local times or setup timezone preferences in your user account.

Time Position Orientation Groundspeed Altitude Reporting Facility
EDT Latitude Longitude Course Direction KTS MPH feet Rate Location/Type
05:37PM 27.5108 -99.4611 20° North 161 185 1,000  Level Houston Center
05:38PM 27.5269 -99.4039 72° East 263 303 2,200 1,740 Climbing Houston Center
05:39PM 27.5975 -99.3739 21° North 267 307 4,600 1,920 Climbing Houston Center
05:41PM 28.2159 -99.0837 24° Northeast  Level FlightAware Approximate
05:41PM 27.6728 -99.3428 20° North 274 315 6,200  Level Houston Center
05:42PM 28.3323 -99.0268 20° North  Level FlightAware Approximate
05:42PM 27.7536 -99.3075 21° North 290 334 8,200  Level Houston Center
05:43PM 28.4512 -98.9773 20° North  Level FlightAware Approximate
05:43PM 27.8347 -99.2706 22° Northeast 302 348 10,100  Level Houston Center
05:44PM 27.9242 -99.2314 21° North 327 376 10,700 840 Climbing Houston Center
05:45PM 28.0275 -99.1861 21° North 386 444 11,900 1,320 Climbing Houston Center
05:46PM 28.1575 -99.1283 21° North 414 476 13,500 1,560 Climbing Houston Center
05:47PM 28.2681 -99.0794 21° North 423 487 15,200 1,560 Climbing Houston Center
05:48PM 28.3808 -99.0283 22° Northeast 432 497 16,800 1,560 Climbing Houston Center
05:49PM 28.4969 -98.9775 21° North 442 509 18,400 1,200 Climbing Houston Center
05:50PM 28.6153 -98.9242 22° Northeast 454 522 19,400 1,200 Climbing Houston Center
05:51PM 28.7617 -98.8597 21° North 471 542 21,000 1,440 Climbing Houston Center
05:52PM 28.8839 -98.8050 21° North 472 543 22,400 1,260 Climbing Houston Center
05:53PM 29.0161 -98.7450 22° Northeast 472 543 23,700 960 Climbing Houston Center
05:54PM 29.1403 -98.6886 22° Northeast 480 552 24,400 720 Climbing Houston Center
05:55PM 29.2586 -98.5856 37° Northeast 501 577 25,300 960 Climbing Houston Center
05:56PM 29.3625 -98.4789 42° Northeast 503 579 26,500 1,080 Climbing Houston Center
05:57PM 29.4758 -98.3661 41° Northeast 506 582 27,600 900 Climbing Houston Center
05:58PM 29.5811 -98.2614 41° Northeast 504 580 28,400 720 Climbing Houston Center
05:59PM 29.6944 -98.1481 41° Northeast 504 580 29,200 720 Climbing Houston Center
06:00PM 29.8000 -98.0403 42° Northeast 507 583 30,000 660 Climbing Houston Center
06:01PM 29.9139 -97.9269 41° Northeast 506 582 30,600 480 Climbing Houston Center
06:02PM 30.0203 -97.8183 41° Northeast 510 587 31,000 180 Climbing Houston Center
06:03PM 30.1169 -97.7189 42° Northeast 519 597 31,000  Level Houston Center
06:04PM 30.2458 -97.5878 41° Northeast 525 604 31,000  Level Houston Center
06:05PM 30.3542 -97.4767 41° Northeast 519 597 31,000  Level Houston Center
06:06PM 30.4633 -97.3644 42° Northeast 521 600 31,000  Level Houston Center
06:07PM 30.5714 -97.2522 42° Northeast 520 598 31,000  Level Houston Center
06:08PM 30.6783 -97.1397 42° Northeast 520 598 31,000  Level Houston Center
06:09PM 30.8042 -97.0097 42° Northeast 520 598 31,000  Level Houston Center
06:11PM 30.9117 -96.9003 41° Northeast 517 595 31,000 60 Level Houston Center
06:12PM 31.0189 -96.7867 42° Northeast 525 604 31,200 360 Climbing Houston Center
06:13PM 31.1281 -96.6731 42° Northeast 524 603 31,800 600 Climbing Houston Center
06:14PM 31.2361 -96.5603 42° Northeast 518 596 32,500 540 Climbing Houston Center
06:15PM 31.3436 -96.4475 42° Northeast 515 593 33,000 240 Climbing Houston Center
06:16PM 31.4489 -96.3350 42° Northeast 511 588 33,000  Level Houston Center
06:17PM 31.5744 -96.2025 42° Northeast 512 589 33,000  Level Houston Center
06:17PM 31.6533 -96.1200 42° Northeast 516 594 33,000  Level Fort Worth Center
06:18PM 31.7586 -96.0061 43° Northeast 516 594 33,000  Level Fort Worth Center
06:19PM 31.8619 -95.8992 41° Northeast 505 581 33,000  Level Fort Worth Center
06:20PM 31.9544 -95.7950 44° Northeast 500 575 33,000  Level Fort Worth Center
06:21PM 32.0636 -95.6778 42° Northeast 510 587 33,000  Level Fort Worth Center
06:22PM 32.1789 -95.5553 42° Northeast 510 587 33,000  Level Fort Worth Center
06:23PM 32.2733 -95.4478 44° Northeast 516 594 33,000  Level Fort Worth Center
06:24PM 32.3778 -95.3372 42° Northeast 516 594 33,000  Level Fort Worth Center
06:25PM 32.4925 -95.2089 43° Northeast 516 594 33,000  Level Fort Worth Center
06:26PM 32.5950 -95.0931 44° Northeast 516 594 33,000  Level Fort Worth Center
06:28PM 32.7239 -94.9539 42° Northeast 516 594 33,000  Level Fort Worth Center
06:29PM 32.8300 -94.8397 42° Northeast 516 594 33,000  Level Fort Worth Center
06:30PM 32.9342 -94.7231 43° Northeast 516 594 33,000  Level Fort Worth Center
06:31PM 33.0381 -94.6083 43° Northeast 516 594 33,000  Level Fort Worth Center
06:32PM 33.1439 -94.4908 43° Northeast 516 594 33,000  Level Fort Worth Center
06:33PM 33.2436 -94.3783 43° Northeast 510 587 33,000  Level Fort Worth Center
06:34PM 33.3494 -94.2678 41° Northeast 505 581 33,000  Level Fort Worth Center
06:35PM 33.4508 -94.1522 44° Northeast 500 575 33,000  Level Fort Worth Center
06:36PM 33.5542 -94.0361 43° Northeast 506 582 33,000  Level Fort Worth Center
06:37PM 33.7022 -93.8603 45° Northeast 502 578 33,000  Level Memphis Center
06:38PM 33.8033 -93.7444 44° Northeast 502 578 33,000  Level Memphis Center
06:39PM 33.9047 -93.6258 44° Northeast 502 578 33,000  Level Memphis Center
06:40PM 34.0100 -93.5044 44° Northeast 502 578 33,000  Level Memphis Center
06:41PM 34.1111 -93.3853 44° Northeast 502 578 33,000  Level Memphis Center
06:42PM 34.2119 -93.2681 44° Northeast 502 578 33,000  Level Memphis Center
06:43PM 34.3128 -93.1483 44° Northeast 502 578 33,000  Level Memphis Center
06:44PM 34.4200 -93.0108 47° Northeast 502 578 33,100 300 Climbing Memphis Center
06:45PM 34.5247 -92.8931 43° Northeast 502 578 33,700 600 Climbing Memphis Center
06:46PM 34.6211 -92.7747 45° Northeast 497 572 34,400 600 Climbing Memphis Center
06:47PM 34.7192 -92.6589 44° Northeast 492 566 34,900 300 Climbing Memphis Center
06:48PM 34.8086 -92.5500 45° Northeast 492 566 35,000  Climbing Memphis Center
06:49PM 34.9067 -92.4336 44° Northeast 492 566 35,000  Level Memphis Center
06:50PM 35.0044 -92.3167 44° Northeast 492 566 35,000  Level Memphis Center
06:51PM 35.1044 -92.1947 45° Northeast 492 566 35,000  Level Memphis Center
06:52PM 35.2000 -92.0800 44° Northeast 487 560 35,000  Level Memphis Center
06:53PM 35.2953 -91.9622 45° Northeast 487 560 35,000  Level Memphis Center
06:54PM 35.3928 -91.8444 45° Northeast 487 560 35,000  Level Memphis Center
06:55PM 35.4922 -91.7239 45° Northeast 487 560 35,000  Level Memphis Center
06:56PM 35.5894 -91.6056 45° Northeast 487 560 35,000  Level Memphis Center
06:57PM 35.6886 -91.4842 45° Northeast 487 560 35,000  Level Memphis Center
06:58PM 35.7750 -91.3678 48° Northeast 482 555 35,000  Level Memphis Center
06:59PM 35.8719 -91.2486 45° Northeast 482 555 35,000  Level Memphis Center
07:00PM 35.9728 -91.1264 44° Northeast 482 555 35,000  Level Memphis Center
07:01PM 36.0714 -91.0067 44° Northeast 482 555 35,000  Level Memphis Center
07:02PM 36.1867 -90.9203 31° Northeast 487 560 35,000  Level Memphis Center
07:03PM 36.3139 -90.8644 19° North 481 554 35,000  Level Memphis Center
07:04PM 36.4433 -90.8033 21° North 481 554 35,000  Level Memphis Center
07:05PM 36.5728 -90.7472 19° North 491 565 35,000  Level Memphis Center
07:06PM 36.7022 -90.6908 19° North 486 559 35,000  Level Memphis Center
07:07PM 36.8294 -90.6292 21° North 486 559 35,000  Level Memphis Center
07:08PM 36.9322 -90.5797 21° North 492 566 35,000  Level Kansas City Center
07:09PM 37.0622 -90.5203 20° North 493 567 35,000  Level Kansas City Center
07:10PM 37.1911 -90.4600 20° North 492 566 35,000  Level Kansas City Center
07:11PM 37.3200 -90.3994 20° North 492 566 35,000  Level Kansas City Center
07:12PM 37.4539 -90.3681 11° North 484 557 35,000  Level Kansas City Center
07:13PM 37.5872 -90.3733 358° North 478 550 35,000  Level Kansas City Center
07:14PM 37.7078 -90.3008 25° Northeast 488 562 35,000  Level Kansas City Center
07:15PM 37.8039 -90.1714 47° Northeast 496 571 35,000  Level Kansas City Center
07:16PM 37.9131 -90.0092 50° Northeast 504 580 35,000  Level Kansas City Center
07:17PM 38.0053 -89.8744 49° Northeast 507 583 35,000  Level Kansas City Center
07:18PM 38.0981 -89.7386 49° Northeast 511 588 35,000  Level Kansas City Center
07:19PM 38.1978 -89.5903 49° Northeast 514 592 35,000  Level Kansas City Center
07:20PM 38.2914 -89.4525 49° Northeast 517 595 35,000  Level Kansas City Center
07:21PM 38.3861 -89.3128 49° Northeast 522 601 35,000  Level Kansas City Center
07:22PM 38.4869 -89.1617 50° Northeast 522 601 35,000  Level Kansas City Center
07:23PM 38.5803 -89.0211 50° Northeast 522 601 35,000  Level Kansas City Center
07:24PM 38.6769 -88.8789 49° Northeast 520 598 35,000  Level Kansas City Center
07:25PM 38.7700 -88.7378 50° Northeast 521 600 35,000  Level Kansas City Center
07:26PM 38.8536 -88.6103 50° Northeast 520 598 35,000  Level Kansas City Center
07:27PM 38.9475 -88.4692 49° Northeast 518 596 35,000  Level Kansas City Center
07:28PM 39.0383 -88.3267 51° Northeast 514 592 35,000  Level Kansas City Center
07:29PM 39.1500 -88.1556 50° Northeast 516 594 35,000  Level Kansas City Center
07:30PM 39.2422 -88.0125 50° Northeast 515 593 35,000  Level Kansas City Center
07:31PM 39.2567 -87.9886 52° Northeast 511 588 35,000  Level Indianapolis Center
07:32PM 39.3478 -87.8450 51° Northeast 513 590 35,000  Level Indianapolis Center
07:33PM 39.4369 -87.7086 50° Northeast 514 592 35,000  Level Indianapolis Center
07:34PM 39.5261 -87.5678 51° Northeast 509 586 35,000  Level Indianapolis Center
07:35PM 39.6328 -87.3997 50° Northeast 504 580 35,000  Level Indianapolis Center
07:36PM 39.7225 -87.2583 50° Northeast 505 581 35,000  Level Indianapolis Center
07:37PM 39.8100 -87.1186 51° Northeast 500 575 35,000  Level Indianapolis Center
07:38PM 39.8983 -86.9783 51° Northeast 499 574 35,000  Level Indianapolis Center
07:39PM 39.9864 -86.8361 51° Northeast 500 575 35,000  Level Indianapolis Center
07:40PM 40.0731 -86.6950 51° Northeast 497 572 35,000  Level Indianapolis Center
07:41PM 40.1597 -86.5547 51° Northeast 492 566 35,000  Level Indianapolis Center
07:42PM 40.2111 -86.4706 51° Northeast 493 567 35,000 -180 Level Chicago Center
07:43PM 40.2967 -86.3300 51° Northeast 492 566 34,800 -840 Descending Chicago Center
07:44PM 40.3836 -86.1842 52° Northeast 502 578 33,300 -1,920 Descending Chicago Center
07:45PM 40.4719 -86.0361 52° Northeast 511 588 30,900 -2,760 Descending Chicago Center
07:46PM 40.5794 -85.8622 51° Northeast 507 583 27,600 -2,940 Descending Chicago Center
07:47PM 40.6636 -85.7219 52° Northeast 494 568 24,900 -1,680 Descending Chicago Center
07:48PM 40.7514 -85.6169 42° Northeast 482 555 24,200 -480 Descending Chicago Center
07:49PM 40.8747 -85.4961 37° Northeast 462 532 24,000 -180 Descending Chicago Center
07:50PM 40.9742 -85.3953 37° Northeast 454 522 23,900 -960 Descending Chicago Center
07:51PM 41.0753 -85.2903 38° Northeast 463 533 22,100 -1,320 Descending Chicago Center
07:52PM 41.1794 -85.1817 38° Northeast 477 549 21,200 -540 Descending Chicago Center
07:53PM 41.2806 -85.0794 37° Northeast 468 539 21,000 -120 Descending Chicago Center
07:54PM 41.4164 -85.0197 18° North 435 501 21,000 -1,140 Level Chicago Center
07:55PM 41.5261 -84.9753 17° North 419 482 18,700 -2,640 Descending Chicago Center
07:56PM 41.6378 -84.9317 16° North 422 486 15,600 -2,520 Descending Chicago Center
07:57PM 41.7383 -84.8686 25° Northeast 407 468 13,600 -1,800 Descending Chicago Center
07:58PM 41.7844 -84.7317 66° East 406 467 11,900 -1,500 Descending Chicago Center
07:59PM 41.8344 -84.5725 67° East 392 451 10,600 -960 Descending Chicago Center
08:00PM 41.8689 -84.4706 66° East 372 428 10,100 -360 Descending Cleveland Center
08:01PM 41.9083 -84.3528 66° East 361 415 10,000 -120 Descending Cleveland Center
08:01PM 41.9181 -84.3144 71° East 307 353 10,000 60 Level Cleveland Center
08:02PM 41.9456 -84.2350 65° Northeast 331 381 10,100  Climbing Cleveland Center
08:03PM 41.9747 -84.1669 60° Northeast 322 371 10,000 -300 Descending Cleveland Center
08:03PM 41.9906 -84.1342 57° Northeast 312 359 9,800 -1,680 Descending Cleveland Center
08:04PM 42.0214 -84.0800 53° Northeast 310 357 8,500 -1,800 Descending Cleveland Center
08:04PM 42.0350 -84.0361 67° East 306 352 8,000 -1,500 Descending Cleveland Center
08:05PM 42.0619 -83.9758 59° Northeast 314 361 7,000 -1,620 Descending Cleveland Center
08:06PM 42.1069 -83.8636 62° Northeast 303 349 5,300 -1,380 Descending Cleveland Center
08:07PM 42.1472 -83.7675 60° Northeast 279 321 4,100 -1,140 Descending Cleveland Center
08:08PM 42.1831 -83.6769 62° Northeast 278 320 3,100 -780 Descending Cleveland Center
08:09PM 42.2367 -83.6178 39° Northeast 228 262 2,600 -360 Descending Cleveland Center
08:10PM 42.2878 -83.5753 32° Northeast 206 237 2,400 -180 Descending Cleveland Center
08:11PM 42.3350 -83.5297 35° Northeast 212 244 2,300 -180 Descending Cleveland Center
08:12PM 42.3050 -83.4694 124° Southeast 171 197 2,100 -480 Descending Cleveland Center
08:13PM 42.2714 -83.4875 202° Southwest 139 160 1,400 -780 Descending Cleveland Center